createdAt,value
2022-11-15T00:01:46.110Z,9.48
2022-11-15T00:04:31.462Z,9.48
2022-11-15T00:07:40.182Z,9.52
2022-11-15T00:10:22.510Z,9.52
2022-11-15T00:13:09.510Z,9.50
2022-11-15T00:16:01.564Z,9.52
2022-11-15T00:18:50.585Z,9.50
2022-11-15T00:21:36.645Z,9.50
2022-11-15T00:24:22.115Z,9.50
2022-11-15T00:27:08.145Z,9.50
2022-11-15T00:29:54.552Z,9.50
2022-11-15T00:32:39.450Z,9.52
2022-11-15T00:35:24.504Z,9.54
2022-11-15T00:38:09.543Z,9.55
2022-11-15T00:40:54.744Z,9.62
2022-11-15T00:43:40.456Z,9.66
2022-11-15T00:46:25.884Z,9.69
2022-11-15T00:49:11.031Z,9.71
2022-11-15T00:51:57.227Z,9.72
2022-11-15T00:54:42.655Z,9.69
2022-11-15T00:57:27.782Z,9.68
2022-11-15T01:00:13.345Z,9.59
2022-11-15T01:02:58.608Z,9.57
2022-11-15T01:05:43.655Z,9.54
2022-11-15T01:08:28.891Z,9.57
2022-11-15T01:11:13.772Z,9.59
2022-11-15T01:13:58.716Z,9.60
2022-11-15T01:16:44.538Z,9.58
2022-11-15T01:19:29.745Z,9.57
2022-11-15T01:22:15.283Z,9.60
2022-11-15T01:25:00.470Z,9.61
2022-11-15T01:27:47.075Z,9.61
2022-11-15T01:30:31.964Z,9.58
2022-11-15T01:33:17.350Z,9.59
2022-11-15T01:36:08.722Z,9.61
2022-11-15T01:38:55.841Z,9.63
2022-11-15T01:41:42.179Z,9.64
2022-11-15T01:44:52.299Z,9.60
2022-11-15T01:47:42.582Z,9.59
2022-11-15T01:50:31.115Z,9.63
2022-11-15T01:53:17.659Z,9.64
2022-11-15T01:56:05.955Z,9.67
2022-11-15T01:58:53.251Z,9.68
2022-11-15T02:01:39.074Z,9.71
2022-11-15T02:04:31.525Z,9.72
2022-11-15T02:07:19.870Z,9.73
2022-11-15T02:10:13.509Z,9.74
2022-11-15T02:13:01.794Z,9.74
2022-11-15T02:16:13.071Z,9.75
2022-11-15T02:19:06.987Z,9.76
2022-11-15T02:22:07.295Z,9.75
2022-11-15T02:25:20.624Z,9.75
2022-11-15T02:28:13.460Z,9.76
2022-11-15T02:31:09.350Z,9.75
2022-11-15T02:34:20.862Z,9.76
2022-11-15T02:37:33.271Z,9.76
2022-11-15T02:40:27.067Z,9.77
2022-11-15T02:43:37.500Z,9.81
2022-11-15T02:46:51.993Z,9.81
2022-11-15T02:49:39.287Z,9.82
2022-11-15T02:52:28.399Z,9.84
2022-11-15T02:55:34.094Z,9.86
2022-11-15T02:58:25.431Z,9.90
2022-11-15T03:01:36.277Z,9.92
2022-11-15T03:04:33.309Z,9.92
2022-11-15T03:07:43.972Z,9.90
2022-11-15T03:10:37.905Z,9.89
2022-11-15T03:13:45.924Z,9.89
2022-11-15T03:16:48.187Z,9.89
2022-11-15T03:19:44.588Z,9.89
2022-11-15T03:22:33.679Z,9.89
2022-11-15T03:25:25.375Z,9.86
2022-11-15T03:28:18.059Z,9.87
2022-11-15T03:31:24.421Z,9.89
2022-11-15T03:34:13.251Z,9.88
2022-11-15T03:36:58.479Z,9.89
2022-11-15T03:39:44.152Z,9.87
2022-11-15T03:43:14.353Z,9.90
2022-11-15T03:46:05.807Z,9.96
2022-11-15T03:49:01.289Z,9.97
2022-11-15T03:51:46.627Z,9.98
2022-11-15T03:54:31.761Z,9.98
2022-11-15T03:57:17.143Z,10.01
2022-11-15T04:00:04.093Z,10.01
2022-11-15T04:02:49.267Z,10.00
2022-11-15T04:05:34.303Z,10.00
2022-11-15T04:08:19.712Z,10.00
2022-11-15T04:11:04.805Z,10.00
2022-11-15T04:13:49.496Z,9.99
2022-11-15T04:16:35.174Z,9.97
2022-11-15T04:19:40.964Z,9.97
2022-11-15T04:22:44.394Z,9.93
2022-11-15T04:25:32.244Z,9.91
2022-11-15T04:28:21.032Z,9.90
2022-11-15T04:31:12.228Z,9.91
2022-11-15T04:33:57.248Z,9.90
2022-11-15T04:37:00.802Z,9.91
2022-11-15T04:39:45.712Z,9.94
2022-11-15T04:42:31.238Z,9.95
2022-11-15T04:45:16.855Z,9.96
2022-11-15T04:48:02.104Z,9.99
2022-11-15T04:50:50.409Z,10.00
2022-11-15T04:53:36.177Z,10.03
2022-11-15T04:56:21.542Z,10.04
2022-11-15T04:59:06.879Z,10.02
2022-11-15T05:01:52.204Z,10.00
2022-11-15T05:04:39.596Z,9.98
2022-11-15T05:07:24.584Z,9.93
2022-11-15T05:10:10.345Z,9.90
2022-11-15T05:12:55.583Z,9.88
2022-11-15T05:15:40.857Z,9.85
2022-11-15T05:18:25.915Z,9.84
2022-11-15T05:21:13.588Z,9.81
2022-11-15T05:23:59.425Z,9.78
2022-11-15T05:26:44.672Z,9.75
2022-11-15T05:29:29.605Z,9.76
2022-11-15T05:32:15.036Z,9.76
2022-11-15T05:35:00.460Z,9.78
2022-11-15T05:37:45.636Z,9.81
2022-11-15T05:40:31.701Z,9.86
2022-11-15T05:43:16.850Z,9.89
2022-11-15T05:46:04.788Z,9.90
2022-11-15T05:48:53.840Z,9.91
2022-11-15T05:51:40.228Z,9.91
2022-11-15T05:54:25.745Z,9.92
2022-11-15T05:57:10.918Z,9.91
2022-11-15T05:59:55.922Z,9.91
2022-11-15T06:02:40.860Z,9.89
2022-11-15T06:05:25.949Z,9.87
2022-11-15T06:08:11.216Z,9.88
2022-11-15T06:10:56.261Z,9.90
2022-11-15T06:13:41.490Z,9.89
2022-11-15T06:16:26.346Z,9.89
2022-11-15T06:19:11.500Z,9.90
2022-11-15T06:21:56.363Z,9.92
2022-11-15T06:24:41.357Z,9.96
2022-11-15T06:27:26.466Z,9.99
2022-11-15T06:30:11.687Z,10.02
2022-11-15T06:33:04.808Z,10.05
2022-11-15T06:35:50.248Z,10.06
2022-11-15T06:38:36.020Z,10.09
2022-11-15T06:41:21.594Z,10.10
2022-11-15T06:44:09.156Z,10.11
2022-11-15T06:46:54.112Z,10.12
2022-11-15T06:49:39.290Z,10.12
2022-11-15T06:52:24.311Z,10.10
2022-11-15T06:55:09.664Z,10.08
2022-11-15T06:57:55.000Z,10.06
2022-11-15T07:00:40.628Z,10.06
2022-11-15T07:03:26.336Z,10.10
2022-11-15T07:06:11.490Z,10.11
2022-11-15T07:08:56.378Z,10.12
2022-11-15T07:11:41.524Z,10.09
2022-11-15T07:14:26.798Z,10.13
2022-11-15T07:17:11.978Z,10.17
2022-11-15T07:19:56.892Z,10.19
2022-11-15T07:22:45.568Z,10.20
2022-11-15T07:25:30.931Z,10.20
2022-11-15T07:28:16.069Z,10.20
2022-11-15T07:31:07.123Z,10.20
2022-11-15T07:33:52.302Z,10.18
2022-11-15T07:36:37.068Z,10.21
2022-11-15T07:39:22.149Z,10.22
2022-11-15T07:42:25.723Z,10.26
2022-11-15T07:45:10.605Z,10.28
2022-11-15T07:47:56.728Z,10.28
2022-11-15T07:50:42.730Z,10.30
2022-11-15T07:53:27.570Z,10.33
2022-11-15T07:56:12.756Z,10.33
2022-11-15T07:58:59.559Z,10.35
2022-11-15T08:01:44.760Z,10.34
2022-11-15T08:04:29.860Z,10.35
2022-11-15T08:07:14.995Z,10.39
2022-11-15T08:10:01.504Z,10.42
2022-11-15T08:12:46.579Z,10.44
2022-11-15T08:15:32.797Z,10.47
2022-11-15T08:18:17.757Z,10.51
2022-11-15T08:21:03.025Z,10.53
2022-11-15T08:23:48.450Z,10.56
2022-11-15T08:26:33.599Z,10.58
2022-11-15T08:29:18.576Z,10.59
2022-11-15T08:32:04.023Z,10.60
2022-11-15T08:34:49.279Z,10.58
2022-11-15T08:37:34.040Z,10.57
2022-11-15T08:40:20.656Z,10.59
2022-11-15T08:43:06.474Z,10.59
2022-11-15T08:45:51.508Z,10.57
2022-11-15T08:48:36.581Z,10.53
2022-11-15T08:51:21.737Z,10.51
2022-11-15T08:54:06.484Z,10.48
2022-11-15T08:56:51.458Z,10.45
2022-11-15T08:59:37.372Z,10.48
2022-11-15T09:02:22.274Z,10.52
2022-11-15T09:05:07.748Z,10.58
2022-11-15T09:07:54.779Z,10.62
2022-11-15T09:10:39.990Z,10.65
2022-11-15T09:13:25.210Z,10.68
2022-11-15T09:16:12.310Z,10.70
2022-11-15T09:18:57.647Z,10.70
2022-11-15T09:21:42.609Z,10.70
2022-11-15T09:24:27.398Z,10.66
2022-11-15T09:27:13.618Z,10.63
2022-11-15T09:29:58.906Z,10.61
2022-11-15T09:32:44.118Z,10.54
2022-11-15T09:35:29.014Z,10.48
2022-11-15T09:38:14.226Z,10.41
2022-11-15T09:41:14.488Z,10.41
2022-11-15T09:44:11.245Z,10.38
2022-11-15T09:47:17.284Z,10.26
2022-11-15T09:50:12.220Z,10.28
2022-11-15T09:52:43.527Z,10.37
2022-11-15T09:55:21.555Z,10.45
2022-11-15T09:57:58.180Z,10.47
2022-11-15T10:00:47.190Z,10.51
2022-11-15T10:03:27.717Z,10.57
2022-11-15T10:06:00.918Z,10.64
2022-11-15T10:08:27.445Z,10.72
2022-11-15T10:13:50.533Z,10.84
2022-11-15T10:16:37.874Z,10.86
2022-11-15T10:19:28.388Z,10.86
2022-11-15T10:22:26.141Z,10.88
2022-11-15T10:25:10.137Z,10.91
2022-11-15T10:27:37.034Z,10.90
2022-11-15T10:30:11.412Z,10.87
2022-11-15T10:32:38.221Z,10.78
2022-11-15T10:35:28.440Z,10.59
2022-11-15T10:38:10.018Z,10.52
2022-11-15T10:40:38.958Z,10.50
2022-11-15T10:43:19.392Z,10.54
2022-11-15T10:45:47.154Z,10.55
2022-11-15T10:48:13.665Z,10.57
2022-11-15T10:50:46.319Z,10.60
2022-11-15T10:53:41.576Z,10.65
2022-11-15T10:56:13.077Z,10.72
2022-11-15T10:58:53.624Z,10.77
2022-11-15T11:01:23.703Z,10.84
2022-11-15T11:04:08.688Z,10.88
2022-11-15T11:06:51.326Z,10.95
2022-11-15T11:09:29.414Z,10.99
2022-11-15T11:11:56.300Z,10.97
2022-11-15T11:14:26.124Z,10.95
2022-11-15T11:17:04.603Z,10.98
2022-11-15T11:19:37.152Z,10.98
2022-11-15T11:22:15.932Z,11.00
2022-11-15T11:24:53.535Z,10.99
2022-11-15T11:27:41.521Z,10.97
2022-11-15T11:30:17.427Z,10.96
2022-11-15T11:32:55.423Z,10.96
2022-11-15T11:35:56.330Z,10.96
2022-11-15T11:38:46.569Z,10.97
2022-11-15T11:41:31.665Z,10.97
2022-11-15T11:44:35.455Z,10.95
2022-11-15T11:47:06.730Z,10.93
2022-11-15T11:49:38.967Z,10.94
2022-11-15T11:52:15.350Z,10.93
2022-11-15T11:55:00.301Z,10.91
2022-11-15T11:57:33.823Z,10.92
2022-11-15T12:00:06.026Z,10.89
2022-11-15T12:02:43.738Z,10.91
2022-11-15T12:05:18.885Z,10.90
2022-11-15T12:07:48.977Z,10.88
2022-11-15T12:10:22.885Z,10.87
2022-11-15T12:12:59.422Z,10.91
2022-11-15T12:15:27.869Z,10.90
2022-11-15T12:17:57.258Z,10.91
2022-11-15T12:20:28.105Z,10.92
2022-11-15T12:23:02.006Z,10.92
2022-11-15T12:25:34.697Z,10.82
2022-11-15T12:28:04.735Z,10.68
2022-11-15T12:30:49.583Z,10.40
2022-11-15T12:33:36.773Z,10.35
2022-11-15T12:36:05.219Z,10.36
2022-11-15T12:38:54.339Z,10.38
2022-11-15T12:41:23.870Z,10.41
2022-11-15T12:43:51.221Z,10.45
2022-11-15T12:46:43.071Z,10.50
2022-11-15T12:49:28.054Z,10.57
2022-11-15T12:51:57.601Z,10.60
2022-11-15T12:54:24.156Z,10.63
2022-11-15T12:57:02.979Z,10.65
2022-11-15T13:00:02.227Z,10.66
2022-11-15T13:02:33.980Z,10.64
2022-11-15T13:05:15.850Z,10.63
2022-11-15T13:07:42.448Z,10.62
2022-11-15T13:10:12.162Z,10.63
2022-11-15T13:12:41.936Z,10.63
2022-11-15T13:15:14.896Z,10.62
2022-11-15T13:17:51.965Z,10.63
2022-11-15T13:20:29.361Z,10.63
2022-11-15T13:23:05.097Z,10.62
2022-11-15T13:25:59.314Z,10.65
2022-11-15T13:28:38.178Z,10.68
2022-11-15T13:31:28.512Z,10.72
2022-11-15T13:34:00.154Z,10.75
2022-11-15T13:36:30.551Z,10.77
2022-11-15T13:38:58.730Z,10.79
2022-11-15T13:41:31.103Z,10.82
2022-11-15T13:43:59.089Z,10.81
2022-11-15T13:46:27.565Z,10.81
2022-11-15T13:49:13.338Z,10.81
2022-11-15T13:51:50.997Z,10.77
2022-11-15T13:54:25.570Z,10.73
2022-11-15T13:57:16.828Z,10.73
2022-11-15T13:59:54.463Z,10.71
2022-11-15T14:02:32.873Z,10.70
2022-11-15T14:05:16.504Z,10.64
2022-11-15T14:08:21.545Z,10.59
2022-11-15T14:10:48.397Z,10.51
2022-11-15T14:13:31.880Z,10.49
2022-11-15T14:16:21.380Z,10.47
2022-11-15T14:18:52.583Z,10.45
2022-11-15T14:21:20.558Z,10.44
2022-11-15T14:23:47.307Z,10.42
2022-11-15T14:26:32.773Z,10.40
2022-11-15T14:29:24.174Z,10.40
2022-11-15T14:31:51.210Z,10.38
2022-11-15T14:34:17.842Z,10.35
2022-11-15T14:36:44.465Z,10.36
2022-11-15T14:39:11.034Z,10.40
2022-11-15T14:41:40.725Z,10.43
2022-11-15T14:44:11.134Z,10.46
2022-11-15T14:46:37.910Z,10.43
2022-11-15T14:49:04.522Z,10.38
2022-11-15T14:51:33.278Z,10.38
2022-11-15T14:53:59.885Z,10.35
2022-11-15T14:56:26.641Z,10.30
2022-11-15T14:58:55.272Z,10.25
2022-11-15T15:01:25.156Z,10.22
2022-11-15T15:03:52.547Z,10.20
2022-11-15T15:06:19.593Z,10.21
2022-11-15T15:08:48.502Z,10.20
2022-11-15T15:11:20.043Z,10.20
2022-11-15T15:13:46.745Z,10.20
2022-11-15T15:16:13.405Z,10.14
2022-11-15T15:18:40.110Z,10.12
2022-11-15T15:21:20.422Z,10.11
2022-11-15T15:23:47.110Z,10.07
2022-11-15T15:26:13.632Z,10.01
2022-11-15T15:28:40.885Z,9.99
2022-11-15T15:31:09.903Z,10.00
2022-11-15T15:33:36.839Z,9.99
2022-11-15T15:36:03.983Z,10.02
2022-11-15T15:38:31.433Z,10.02
2022-11-15T15:40:59.940Z,10.03
2022-11-15T15:43:26.550Z,10.03
2022-11-15T15:45:53.351Z,10.03
2022-11-15T15:48:20.043Z,10.03
2022-11-15T15:50:47.687Z,10.00
2022-11-15T15:53:14.657Z,9.97
2022-11-15T15:55:41.509Z,9.93
2022-11-15T15:58:08.613Z,9.94
2022-11-15T16:00:35.375Z,9.93
2022-11-15T16:03:02.219Z,9.91
2022-11-15T16:05:28.995Z,9.88
2022-11-15T16:07:55.622Z,9.86
2022-11-15T16:10:27.935Z,9.86
2022-11-15T16:12:55.986Z,9.85
2022-11-15T16:15:24.473Z,9.86
2022-11-15T16:17:54.247Z,9.86
2022-11-15T16:20:29.511Z,9.83
2022-11-15T16:22:56.297Z,9.82
2022-11-15T16:25:23.060Z,9.86
2022-11-15T16:27:49.650Z,9.89
2022-11-15T16:30:19.050Z,9.87
2022-11-15T16:32:46.488Z,9.87
2022-11-15T16:35:17.162Z,9.92
2022-11-15T16:37:46.447Z,9.94
2022-11-15T16:40:24.850Z,9.96
2022-11-15T16:42:51.369Z,9.91
2022-11-15T16:45:18.203Z,9.84
2022-11-15T16:47:44.796Z,9.82
2022-11-15T16:50:29.956Z,9.85
2022-11-15T16:52:58.702Z,9.84
2022-11-15T16:55:27.765Z,9.86
2022-11-15T16:57:57.483Z,9.86
2022-11-15T17:00:24.907Z,9.84
2022-11-15T17:02:52.796Z,9.80
2022-11-15T17:05:22.025Z,9.73
2022-11-15T17:07:53.478Z,9.65
2022-11-15T17:10:25.329Z,9.63
2022-11-15T17:12:52.707Z,9.62
2022-11-15T17:15:19.426Z,9.61
2022-11-15T17:17:52.579Z,9.60
2022-11-15T17:20:21.090Z,9.61
2022-11-15T17:22:47.706Z,9.64
2022-11-15T17:25:14.478Z,9.67
2022-11-15T17:27:42.049Z,9.71
2022-11-15T17:30:12.672Z,9.74
2022-11-15T17:32:39.265Z,9.77
2022-11-15T17:35:14.856Z,9.81
2022-11-15T17:37:43.018Z,9.83
2022-11-15T17:40:10.176Z,9.85
2022-11-15T17:42:36.877Z,9.84
2022-11-15T17:45:09.397Z,9.86
2022-11-15T17:47:36.819Z,9.86
2022-11-15T17:50:03.856Z,9.87
2022-11-15T17:52:30.605Z,9.84
2022-11-15T17:54:57.074Z,9.83
2022-11-15T17:57:23.810Z,9.83
2022-11-15T17:59:50.421Z,9.80
2022-11-15T18:02:17.105Z,9.79
2022-11-15T18:04:43.686Z,9.77
2022-11-15T18:07:11.661Z,9.75
2022-11-15T18:09:41.569Z,9.73
2022-11-15T18:12:09.105Z,9.73
2022-11-15T18:14:36.397Z,9.71
2022-11-15T18:17:02.935Z,9.70
2022-11-15T18:19:29.558Z,9.70
2022-11-15T18:21:56.646Z,9.71
2022-11-15T18:24:31.809Z,9.70
2022-11-15T18:26:59.607Z,9.72
2022-11-15T18:29:26.493Z,9.73
2022-11-15T18:31:56.840Z,9.74
2022-11-15T18:34:24.925Z,9.74
2022-11-15T18:36:52.858Z,9.78
2022-11-15T18:39:19.943Z,9.79
2022-11-15T18:41:47.356Z,9.79
2022-11-15T18:44:14.664Z,9.76
2022-11-15T18:46:41.685Z,9.75
2022-11-15T18:49:09.781Z,9.73
2022-11-15T18:51:42.659Z,9.69
2022-11-15T18:54:12.083Z,9.67
2022-11-15T18:56:38.998Z,9.64
2022-11-15T18:59:05.820Z,9.63
2022-11-15T19:01:37.977Z,9.62
2022-11-15T19:04:16.804Z,9.62
2022-11-15T19:06:45.200Z,9.61
2022-11-15T19:09:14.675Z,9.59
2022-11-15T19:11:43.000Z,9.60
2022-11-15T19:14:11.612Z,9.58
2022-11-15T19:16:44.123Z,9.55
2022-11-15T19:19:16.187Z,9.52
2022-11-15T19:21:43.101Z,9.53
2022-11-15T19:24:10.122Z,9.54
2022-11-15T19:26:37.566Z,9.56
2022-11-15T19:29:05.680Z,9.59
2022-11-15T19:31:32.938Z,9.60
2022-11-15T19:34:02.068Z,9.63
2022-11-15T19:36:33.847Z,9.64
2022-11-15T19:39:04.528Z,9.66
2022-11-15T19:41:31.423Z,9.68
2022-11-15T19:43:57.987Z,9.70
2022-11-15T19:46:26.284Z,9.69
2022-11-15T19:48:53.521Z,9.69
2022-11-15T19:51:24.500Z,9.70
2022-11-15T19:54:05.572Z,9.69
2022-11-15T19:56:33.836Z,9.68
2022-11-15T19:59:00.736Z,9.67
2022-11-15T20:01:33.318Z,9.64
2022-11-15T20:04:00.064Z,9.61
2022-11-15T20:06:35.176Z,9.58
2022-11-15T20:09:02.481Z,9.55
2022-11-15T20:11:29.169Z,9.54
2022-11-15T20:14:03.513Z,9.51
2022-11-15T20:16:30.245Z,9.48
2022-11-15T20:18:56.891Z,9.45
2022-11-15T20:21:23.872Z,9.46
2022-11-15T20:23:51.225Z,9.52
2022-11-15T20:26:18.662Z,9.51
2022-11-15T20:28:47.250Z,9.51
2022-11-15T20:31:14.771Z,9.52
2022-11-15T20:33:41.377Z,9.55
2022-11-15T20:36:11.635Z,9.57
2022-11-15T20:38:38.706Z,9.59
2022-11-15T20:41:05.807Z,9.63
2022-11-15T20:43:32.771Z,9.62
2022-11-15T20:45:59.392Z,9.62
2022-11-15T20:48:26.551Z,9.62
2022-11-15T20:51:06.621Z,9.61
2022-11-15T20:53:34.184Z,9.59
2022-11-15T20:56:10.709Z,9.58
2022-11-15T20:58:38.160Z,9.56
2022-11-15T21:01:07.204Z,9.50
2022-11-15T21:03:34.441Z,9.48
2022-11-15T21:06:01.162Z,9.47
2022-11-15T21:08:48.288Z,9.44
2022-11-15T21:11:33.533Z,9.41
2022-11-15T21:14:02.044Z,9.38
2022-11-15T21:16:31.746Z,9.32
2022-11-15T21:18:58.341Z,9.33
2022-11-15T21:21:24.934Z,9.32
2022-11-15T21:23:51.491Z,9.32
2022-11-15T21:26:18.128Z,9.34
2022-11-15T21:28:45.022Z,9.35
2022-11-15T21:31:11.839Z,9.36
2022-11-15T21:33:38.388Z,9.41
2022-11-15T21:36:05.327Z,9.45
2022-11-15T21:38:32.280Z,9.46
2022-11-15T21:41:03.114Z,9.50
2022-11-15T21:43:29.835Z,9.49
2022-11-15T21:46:00.724Z,9.51
2022-11-15T21:48:29.430Z,9.47
2022-11-15T21:51:01.542Z,9.43
2022-11-15T21:53:29.303Z,9.44
2022-11-15T21:55:56.188Z,9.42
2022-11-15T21:58:23.291Z,9.41
2022-11-15T22:01:08.505Z,9.39
2022-11-15T22:03:35.563Z,9.34
2022-11-15T22:06:02.202Z,9.34
2022-11-15T22:08:30.417Z,9.32
2022-11-15T22:10:57.126Z,9.31
2022-11-15T22:13:25.139Z,9.30
2022-11-15T22:15:53.496Z,9.30
2022-11-15T22:18:26.226Z,9.29
2022-11-15T22:20:59.018Z,9.27
2022-11-15T22:23:27.604Z,9.25
2022-11-15T22:25:54.488Z,9.28
2022-11-15T22:28:21.441Z,9.28
2022-11-15T22:30:50.095Z,9.28
2022-11-15T22:33:17.973Z,9.31
2022-11-15T22:35:46.066Z,9.31
2022-11-15T22:38:12.746Z,9.31
2022-11-15T22:40:39.681Z,9.32
2022-11-15T22:43:07.059Z,9.31
2022-11-15T22:45:33.821Z,9.30
2022-11-15T22:48:00.609Z,9.29
2022-11-15T22:50:27.309Z,9.26
2022-11-15T22:52:54.098Z,9.24
2022-11-15T22:55:20.715Z,9.23
2022-11-15T22:57:47.516Z,9.22
2022-11-15T23:00:16.143Z,9.19
2022-11-15T23:02:42.784Z,9.17
2022-11-15T23:05:09.966Z,9.16
2022-11-15T23:07:36.911Z,9.13
2022-11-15T23:10:23.837Z,9.13
2022-11-15T23:13:08.892Z,9.14
2022-11-15T23:15:54.143Z,9.16
2022-11-15T23:18:21.033Z,9.17
2022-11-15T23:20:47.643Z,9.19
2022-11-15T23:23:14.330Z,9.22
2022-11-15T23:25:40.984Z,9.24
2022-11-15T23:28:07.690Z,9.25
2022-11-15T23:30:53.996Z,9.25
2022-11-15T23:33:39.793Z,9.22
2022-11-15T23:36:07.128Z,9.23
2022-11-15T23:38:37.515Z,9.25
2022-11-15T23:41:05.459Z,9.25
2022-11-15T23:43:32.143Z,9.24
2022-11-15T23:46:02.337Z,9.20
2022-11-15T23:48:29.226Z,9.20
2022-11-15T23:50:56.014Z,9.19
2022-11-15T23:53:22.720Z,9.18
2022-11-15T23:55:59.572Z,9.13
2022-11-15T23:58:26.231Z,9.11
